Time;durP1;ratioP1;P1;durP2;ratioP2;P2;SDS_P1;SDS_P2;PMS_P1;PMS_P2;Temp;Humidity;BMP_temperature;BMP_pressure;BME280_temperature;BME280_humidity;BME280_pressure;Samples;Min_cycle;Max_cycle;Signal;HPM_P1;HPM_P2
2022/08/12 00:43:53;;;;;;;;;;;23.40;54.80;;;;;;5067092;27;81944;-37
2022/08/12 00:46:30;;;;;;;;;;;23.30;54.70;;;;;;5066574;27;82232;-37
2022/08/12 00:48:56;;;;;;;;;;;23.30;54.80;;;;;;5067495;27;81284;-38
2022/08/12 00:51:22;;;;;;;;;;;23.30;54.70;;;;;;5067212;27;82130;-38
2022/08/12 00:53:47;;;;;;;;;;;23.30;54.80;;;;;;5069773;27;82941;-37
2022/08/12 00:56:13;;;;;;;;;;;23.30;54.80;;;;;;5066334;27;82838;-38
2022/08/12 00:58:44;;;;;;;;;;;23.30;54.70;;;;;;5066620;27;82249;-38
2022/08/12 01:01:10;;;;;;;;;;;23.30;54.80;;;;;;5066995;27;81986;-38
2022/08/12 01:11:50;;;;;;;;;;;23.30;54.90;;;;;;5064449;27;81924;-38
2022/08/12 01:14:16;;;;;;;;;;;23.30;54.90;;;;;;5066938;27;83642;-37
2022/08/12 01:16:42;;;;;;;;;;;23.20;54.90;;;;;;5069093;27;82078;-38
2022/08/12 01:19:10;;;;;;;;;;;23.20;54.90;;;;;;5066094;27;83406;-38
2022/08/12 01:21:55;;;;;;;;;;;23.20;54.90;;;;;;5065506;27;83030;-38
2022/08/12 01:24:39;;;;;;;;;;;23.20;54.90;;;;;;5066649;27;83912;-38
2022/08/12 01:27:07;;;;;;;;;;;23.20;54.90;;;;;;5066414;27;82848;-38
2022/08/12 01:29:33;;;;;;;;;;;23.20;54.90;;;;;;5065883;27;82046;-38
2022/08/12 01:32:03;;;;;;;;;;;23.20;54.90;;;;;;5066469;27;82390;-38
2022/08/12 01:34:30;;;;;;;;;;;23.20;55.00;;;;;;5065698;27;82793;-38
2022/08/12 01:36:57;;;;;;;;;;;23.10;55.00;;;;;;5066259;27;82106;-38
2022/08/12 01:39:31;;;;;;;;;;;23.20;55.00;;;;;;5069214;27;81554;-37
2022/08/12 01:42:01;;;;;;;;;;;23.10;54.90;;;;;;5066340;27;81906;-38
2022/08/12 01:44:27;;;;;;;;;;;23.10;54.90;;;;;;5066118;27;82243;-37
2022/08/12 01:47:12;;;;;;;;;;;23.10;55.00;;;;;;5065234;27;83616;-37
2022/08/12 01:49:56;;;;;;;;;;;23.10;55.00;;;;;;5043395;27;82086;-38
2022/08/12 01:52:29;;;;;;;;;;;23.10;55.20;;;;;;5066201;27;82169;-37
2022/08/12 01:54:57;;;;;;;;;;;23.10;55.10;;;;;;5066251;27;82966;-37
2022/08/12 01:57:24;;;;;;;;;;;23.10;55.10;;;;;;5065788;27;81963;-37
2022/08/12 01:59:59;;;;;;;;;;;23.00;55.20;;;;;;5066087;27;82577;-37
2022/08/12 02:02:31;;;;;;;;;;;23.10;55.20;;;;;;5068506;27;82884;-38
2022/08/12 02:13:26;;;;;;;;;;;23.00;55.30;;;;;;5064453;27;83020;-37
2022/08/12 02:15:55;;;;;;;;;;;23.00;55.40;;;;;;5065414;27;82913;-37
2022/08/12 02:18:39;;;;;;;;;;;23.00;55.40;;;;;;5065233;27;82059;-37
2022/08/12 02:21:10;;;;;;;;;;;23.00;55.40;;;;;;5065572;27;82386;-37
2022/08/12 02:23:37;;;;;;;;;;;23.00;55.40;;;;;;5065535;27;82273;-37
2022/08/12 02:26:05;;;;;;;;;;;22.90;55.40;;;;;;5068266;27;81927;-37
2022/08/12 02:28:32;;;;;;;;;;;23.00;55.50;;;;;;5065528;27;83303;-37
2022/08/12 02:31:01;;;;;;;;;;;22.90;55.50;;;;;;5065919;27;81417;-37
2022/08/12 02:33:27;;;;;;;;;;;22.90;55.50;;;;;;5065442;27;82341;-37
2022/08/12 02:35:53;;;;;;;;;;;22.90;55.50;;;;;;5065442;27;82905;-37
2022/08/12 02:38:19;;;;;;;;;;;22.90;55.50;;;;;;5063266;27;83004;-37
2022/08/12 02:40:46;;;;;;;;;;;22.90;55.60;;;;;;5066872;27;85095;-37
2022/08/12 02:43:21;;;;;;;;;;;22.90;55.60;;;;;;5068796;27;83208;-37
2022/08/12 02:45:50;;;;;;;;;;;22.90;55.70;;;;;;5068605;27;81999;-37
2022/08/12 02:48:27;;;;;;;;;;;22.90;55.70;;;;;;5071548;27;82382;-37
2022/08/12 02:50:55;;;;;;;;;;;22.90;55.70;;;;;;5068718;27;82402;-37
2022/08/12 02:53:21;;;;;;;;;;;22.90;55.80;;;;;;5068685;27;82438;-37
2022/08/12 02:55:47;;;;;;;;;;;22.90;55.80;;;;;;5068885;27;82357;-37
2022/08/12 02:58:13;;;;;;;;;;;22.90;55.70;;;;;;5068362;27;82053;-37
2022/08/12 03:00:39;;;;;;;;;;;22.90;55.80;;;;;;5068800;27;82709;-37
2022/08/12 03:03:07;;;;;;;;;;;22.80;55.70;;;;;;5067715;27;84130;-37
2022/08/12 03:05:39;;;;;;;;;;;22.90;55.80;;;;;;5068427;27;82269;-37
2022/08/12 03:08:07;;;;;;;;;;;22.80;55.90;;;;;;5070883;27;82760;-37
2022/08/12 03:10:38;;;;;;;;;;;22.80;55.90;;;;;;5068421;27;82196;-37
2022/08/12 03:13:05;;;;;;;;;;;22.80;55.90;;;;;;5068314;27;83942;-37
2022/08/12 03:15:31;;;;;;;;;;;22.80;55.90;;;;;;5067859;27;83578;-37
2022/08/12 03:17:57;;;;;;;;;;;22.80;55.90;;;;;;5068341;27;82003;-37
2022/08/12 03:20:23;;;;;;;;;;;22.80;56.00;;;;;;5068757;27;82302;-37
2022/08/12 03:22:49;;;;;;;;;;;22.70;55.90;;;;;;5068033;27;83422;-37
2022/08/12 03:25:26;;;;;;;;;;;22.80;56.00;;;;;;5068201;27;82260;-37
2022/08/12 03:27:55;;;;;;;;;;;22.80;56.10;;;;;;5067474;27;83765;-37
2022/08/12 03:30:25;;;;;;;;;;;22.70;56.10;;;;;;5070620;27;84597;-37
2022/08/12 03:32:51;;;;;;;;;;;22.70;56.10;;;;;;5068142;27;82397;-37
2022/08/12 03:35:25;;;;;;;;;;;22.70;56.10;;;;;;5068093;27;83187;-37
2022/08/12 03:37:52;;;;;;;;;;;22.70;56.20;;;;;;5067668;27;81856;-37
2022/08/12 04:02:15;;;;;;;;;;;22.60;56.30;;;;;;5067765;27;81965;-37
2022/08/12 04:04:44;;;;;;;;;;;22.60;56.30;;;;;;5067488;27;82824;-37
2022/08/12 04:07:10;;;;;;;;;;;22.60;56.40;;;;;;5067170;27;82047;-37
2022/08/12 04:09:39;;;;;;;;;;;22.60;56.40;;;;;;5067754;27;82548;-37
2022/08/12 04:14:50;;;;;;;;;;;22.60;56.60;;;;;;5067251;27;81854;-37
2022/08/12 04:17:17;;;;;;;;;;;22.60;56.60;;;;;;5069871;27;82418;-37
2022/08/12 04:19:43;;;;;;;;;;;22.60;56.50;;;;;;5066612;27;82995;-37
2022/08/12 04:22:11;;;;;;;;;;;22.60;56.60;;;;;;5067246;27;83345;-37
2022/08/12 04:24:37;;;;;;;;;;;22.50;56.60;;;;;;5067058;27;84354;-37
2022/08/12 04:27:07;;;;;;;;;;;22.50;56.60;;;;;;5067259;27;81997;-37
2022/08/12 04:29:33;;;;;;;;;;;22.50;56.60;;;;;;5067253;27;82483;-37
2022/08/12 04:31:58;;;;;;;;;;;22.50;56.60;;;;;;5067145;27;82936;-37
2022/08/12 04:34:24;;;;;;;;;;;22.50;56.80;;;;;;5067013;27;82102;-37
2022/08/12 04:36:52;;;;;;;;;;;22.50;56.90;;;;;;5067310;27;84172;-37
2022/08/12 04:39:20;;;;;;;;;;;22.50;56.80;;;;;;5069294;27;84585;-37
2022/08/12 04:41:45;;;;;;;;;;;22.50;56.90;;;;;;5066890;27;84159;-37
2022/08/12 04:44:10;;;;;;;;;;;22.50;56.90;;;;;;5066230;27;84088;-37
2022/08/12 04:46:36;;;;;;;;;;;22.50;56.90;;;;;;5067202;27;82058;-37
2022/08/12 04:49:03;;;;;;;;;;;22.50;57.00;;;;;;5066880;27;82304;-37
2022/08/12 04:51:29;;;;;;;;;;;22.40;56.90;;;;;;5066647;27;84159;-37
2022/08/12 04:53:55;;;;;;;;;;;22.40;57.00;;;;;;5066896;27;81979;-37
2022/08/12 04:56:20;;;;;;;;;;;22.40;56.90;;;;;;5067058;27;82404;-37
2022/08/12 04:58:46;;;;;;;;;;;22.40;56.90;;;;;;5066570;27;83483;-37
2022/08/12 05:01:12;;;;;;;;;;;22.40;57.00;;;;;;5070095;27;81182;-37
2022/08/12 05:03:37;;;;;;;;;;;22.40;57.20;;;;;;5065986;27;82879;-37
2022/08/12 05:06:03;;;;;;;;;;;22.40;57.00;;;;;;5066487;27;82173;-37
2022/08/12 05:08:29;;;;;;;;;;;22.40;57.10;;;;;;5066189;27;83035;-38
2022/08/12 05:10:55;;;;;;;;;;;22.40;57.20;;;;;;5066277;27;84013;-37
2022/08/12 05:13:22;;;;;;;;;;;22.40;57.10;;;;;;5066410;27;82200;-37
2022/08/12 05:15:48;;;;;;;;;;;22.40;57.10;;;;;;5066363;27;82014;-37
2022/08/12 05:18:14;;;;;;;;;;;22.40;57.20;;;;;;5065944;27;82680;-37
2022/08/12 05:20:42;;;;;;;;;;;22.40;57.20;;;;;;5069155;27;82061;-38
2022/08/12 05:23:12;;;;;;;;;;;22.40;57.20;;;;;;5066026;27;82873;-38
2022/08/12 05:25:38;;;;;;;;;;;22.30;57.10;;;;;;5067084;27;81184;-38
2022/08/12 05:28:07;;;;;;;;;;;22.40;57.20;;;;;;5066612;27;82040;-37
2022/08/12 05:30:33;;;;;;;;;;;22.40;57.20;;;;;;5066072;27;82978;-38
2022/08/12 05:33:00;;;;;;;;;;;22.40;57.20;;;;;;5065793;27;83019;-37
2022/08/12 05:35:26;;;;;;;;;;;22.30;57.10;;;;;;5066079;27;84789;-37
2022/08/12 05:38:54;;;;;;;;;;;22.40;57.20;;;;;;5066001;27;83213;-37
2022/08/12 05:40:37;;;;;;;;;;;22.30;57.10;;;;;;5065891;27;82050;-37
2022/08/12 05:43:03;;;;;;;;;;;22.30;57.30;;;;;;5069164;27;82498;-37
2022/08/12 05:45:28;;;;;;;;;;;22.30;57.10;;;;;;5066241;27;82057;-37
2022/08/12 05:47:54;;;;;;;;;;;22.30;57.10;;;;;;5066432;27;82467;-37
2022/08/12 05:50:19;;;;;;;;;;;22.30;57.10;;;;;;5066664;27;82402;-37
2022/08/12 05:52:45;;;;;;;;;;;22.30;57.10;;;;;;5066122;27;82081;-37
2022/08/12 05:55:10;;;;;;;;;;;22.30;57.20;;;;;;5066228;27;82512;-37
2022/08/12 05:57:36;;;;;;;;;;;22.30;57.20;;;;;;5065314;27;84016;-37
2022/08/12 06:00:02;;;;;;;;;;;22.30;57.20;;;;;;5065905;27;81942;-37
2022/08/12 06:02:28;;;;;;;;;;;22.30;57.20;;;;;;5065895;27;83047;-37
2022/08/12 06:04:53;;;;;;;;;;;22.20;57.30;;;;;;5068352;27;84254;-37
2022/08/12 06:07:18;;;;;;;;;;;22.20;57.30;;;;;;5066017;27;82490;-37
2022/08/12 06:09:44;;;;;;;;;;;22.30;57.30;;;;;;5065867;27;82976;-37
2022/08/12 06:12:10;;;;;;;;;;;22.30;57.20;;;;;;5066089;27;82048;-37
2022/08/12 06:14:36;;;;;;;;;;;22.30;57.30;;;;;;5065778;27;83003;-37
2022/08/12 06:17:02;;;;;;;;;;;22.30;57.30;;;;;;5068893;27;83284;-37
2022/08/12 06:19:30;;;;;;;;;;;22.20;57.40;;;;;;5069365;27;83145;-37
2022/08/12 06:21:56;;;;;;;;;;;22.20;57.40;;;;;;5068405;27;82928;-37
2022/08/12 06:24:23;;;;;;;;;;;22.30;57.30;;;;;;5069092;27;82242;-37
2022/08/12 06:26:49;;;;;;;;;;;22.20;57.30;;;;;;5071823;27;82029;-37
2022/08/12 06:29:18;;;;;;;;;;;22.20;57.50;;;;;;5068562;27;84231;-37
2022/08/12 06:31:49;;;;;;;;;;;22.20;57.40;;;;;;5068965;27;82912;-37
2022/08/12 06:34:18;;;;;;;;;;;22.20;57.40;;;;;;5069082;27;82553;-37
2022/08/12 06:36:44;;;;;;;;;;;22.20;57.30;;;;;;5068865;27;82222;-37
2022/08/12 06:39:11;;;;;;;;;;;22.20;57.50;;;;;;5069354;27;81323;-37
2022/08/12 06:44:21;;;;;;;;;;;22.20;57.30;;;;;;5068751;27;82296;-37
2022/08/12 06:46:46;;;;;;;;;;;22.20;57.50;;;;;;5067946;27;82868;-37
2022/08/12 06:49:12;;;;;;;;;;;22.20;57.40;;;;;;5071261;27;85242;-37
2022/08/12 06:51:38;;;;;;;;;;;22.20;57.90;;;;;;5069054;27;81992;-37
2022/08/12 06:54:04;;;;;;;;;;;22.20;57.50;;;;;;5069004;27;82448;-37
2022/08/12 06:56:29;;;;;;;;;;;22.20;57.40;;;;;;5068652;27;82995;-37
2022/08/12 06:58:56;;;;;;;;;;;22.20;57.50;;;;;;5068623;27;81865;-37
2022/08/12 07:01:22;;;;;;;;;;;22.20;57.50;;;;;;5068412;27;84064;-37
2022/08/12 07:03:49;;;;;;;;;;;22.20;57.50;;;;;;5068779;27;82390;-37
2022/08/12 07:06:15;;;;;;;;;;;22.30;57.60;;;;;;5068556;27;82109;-37
2022/08/12 07:08:42;;;;;;;;;;;22.30;57.50;;;;;;5071250;27;82406;-37
2022/08/12 07:11:10;;;;;;;;;;;22.30;57.60;;;;;;5067914;27;83060;-37
2022/08/12 07:13:37;;;;;;;;;;;22.30;57.50;;;;;;5068365;27;82417;-37
2022/08/12 07:16:04;;;;;;;;;;;22.30;57.50;;;;;;5068025;27;82103;-37
2022/08/12 07:18:31;;;;;;;;;;;22.30;57.70;;;;;;5068231;27;81875;-37
2022/08/12 07:21:00;;;;;;;;;;;22.30;57.60;;;;;;5068157;27;83750;-37
2022/08/12 07:23:26;;;;;;;;;;;22.30;57.60;;;;;;5067835;27;84371;-37
2022/08/12 07:25:52;;;;;;;;;;;22.30;57.50;;;;;;5067626;27;82065;-37
2022/08/12 07:28:22;;;;;;;;;;;22.30;57.70;;;;;;5068829;27;82333;-37
2022/08/12 07:30:48;;;;;;;;;;;22.30;57.50;;;;;;5070514;27;83770;-37
2022/08/12 07:33:15;;;;;;;;;;;22.30;57.70;;;;;;5067961;27;83647;-37
2022/08/12 07:35:44;;;;;;;;;;;22.30;57.70;;;;;;5067233;27;84396;-37
2022/08/12 07:38:47;;;;;;;;;;;22.30;57.80;;;;;;5067686;27;82048;-37
2022/08/12 07:41:14;;;;;;;;;;;22.30;57.50;;;;;;5045428;28;82410;-37
2022/08/12 07:43:41;;;;;;;;;;;22.30;57.80;;;;;;5063323;27;82886;-37
2022/08/12 07:46:08;;;;;;;;;;;22.30;57.80;;;;;;5067666;27;82101;-37
2022/08/12 07:48:35;;;;;;;;;;;22.30;57.50;;;;;;5067706;27;83651;-37
2022/08/12 07:51:01;;;;;;;;;;;22.30;57.60;;;;;;5067722;27;83275;-37
2022/08/12 07:53:26;;;;;;;;;;;22.30;57.60;;;;;;5071235;27;81263;-37
2022/08/12 07:55:52;;;;;;;;;;;22.30;57.50;;;;;;5067809;27;82103;-37
2022/08/12 07:58:17;;;;;;;;;;;22.30;57.60;;;;;;5067777;27;82053;-37
2022/08/12 08:00:43;;;;;;;;;;;22.30;57.60;;;;;;5067372;27;82870;-37
2022/08/12 08:03:11;;;;;;;;;;;22.30;57.70;;;;;;5067215;27;82916;-37
2022/08/12 08:05:46;;;;;;;;;;;22.30;57.70;;;;;;5067414;27;82101;-37
2022/08/12 08:08:13;;;;;;;;;;;22.30;57.60;;;;;;5067866;27;82630;-37
2022/08/12 08:10:38;;;;;;;;;;;22.30;57.60;;;;;;5067207;27;84132;-37
2022/08/12 08:13:05;;;;;;;;;;;22.30;57.70;;;;;;5067465;27;82100;-37
2022/08/12 08:15:33;;;;;;;;;;;22.30;57.80;;;;;;5069316;27;82955;-38
2022/08/12 08:18:01;;;;;;;;;;;22.30;57.70;;;;;;5067681;27;83102;-37
2022/08/12 08:20:32;;;;;;;;;;;22.30;57.50;;;;;;5067137;27;83175;-37
2022/08/12 08:22:59;;;;;;;;;;;22.30;57.60;;;;;;5067100;27;84652;-37
2022/08/12 08:25:31;;;;;;;;;;;22.30;57.80;;;;;;5066512;27;82863;-37
2022/08/12 08:28:13;;;;;;;;;;;22.30;57.70;;;;;;5067276;27;83233;-37
2022/08/12 08:30:42;;;;;;;;;;;22.30;57.80;;;;;;5067052;27;83100;-37
2022/08/12 08:33:08;;;;;;;;;;;22.40;57.70;;;;;;5066996;27;81897;-37
2022/08/12 08:35:33;;;;;;;;;;;22.40;57.50;;;;;;5067269;27;82393;-37
2022/08/12 08:38:10;;;;;;;;;;;22.30;57.50;;;;;;5068349;27;84381;-37
2022/08/12 08:43:21;;;;;;;;;;;22.30;57.60;;;;;;5067739;27;81489;-37
2022/08/12 08:45:47;;;;;;;;;;;22.40;57.50;;;;;;5067350;27;81965;-37
2022/08/12 08:48:13;;;;;;;;;;;22.40;57.70;;;;;;5066646;27;84018;-37
2022/08/12 08:50:39;;;;;;;;;;;22.40;57.70;;;;;;5065766;27;84944;-37
2022/08/12 08:53:07;;;;;;;;;;;22.30;57.50;;;;;;5066904;27;81955;-37
2022/08/12 08:55:33;;;;;;;;;;;22.40;57.60;;;;;;5066740;27;83186;-37
2022/08/12 08:57:59;;;;;;;;;;;22.40;57.50;;;;;;5066631;27;82723;-37
2022/08/12 09:00:25;;;;;;;;;;;22.40;57.50;;;;;;5069739;27;82064;-37
2022/08/12 09:02:51;;;;;;;;;;;22.40;57.50;;;;;;5066643;27;82053;-37
2022/08/12 09:05:16;;;;;;;;;;;22.40;57.40;;;;;;5067019;27;82510;-37
2022/08/12 09:07:49;;;;;;;;;;;22.40;57.50;;;;;;5067330;27;82446;-37
2022/08/12 09:10:18;;;;;;;;;;;22.40;57.70;;;;;;5066428;27;83284;-37
2022/08/12 09:15:32;;;;;;;;;;;22.40;57.60;;;;;;5065649;27;85428;-37
2022/08/12 09:17:58;;;;;;;;;;;22.40;57.80;;;;;;5066429;27;82726;-37
2022/08/12 09:20:25;;;;;;;;;;;22.40;57.50;;;;;;5069255;27;82040;-38
2022/08/12 09:22:51;;;;;;;;;;;22.40;57.50;;;;;;5065711;27;84723;-37
2022/08/12 09:25:17;;;;;;;;;;;22.50;57.80;;;;;;5066661;27;82073;-37
2022/08/12 09:27:43;;;;;;;;;;;22.50;57.40;;;;;;5066640;27;82720;-37
2022/08/12 09:30:14;;;;;;;;;;;22.40;57.70;;;;;;5066382;27;83160;-37
2022/08/12 09:32:52;;;;;;;;;;;22.50;57.30;;;;;;5067051;27;81105;-37
2022/08/12 09:35:22;;;;;;;;;;;22.50;57.30;;;;;;5066251;27;82192;-37
2022/08/12 09:37:48;;;;;;;;;;;22.50;57.70;;;;;;5065886;27;84389;-37
2022/08/12 09:40:14;;;;;;;;;;;22.40;57.40;;;;;;5065485;27;82996;-37
2022/08/12 09:45:25;;;;;;;;;;;22.40;57.60;;;;;;5066382;27;82016;-37
2022/08/12 09:47:51;;;;;;;;;;;22.40;57.60;;;;;;5066167;27;82101;-37
2022/08/12 09:50:17;;;;;;;;;;;22.40;57.60;;;;;;5068498;27;83020;-37
2022/08/12 09:52:44;;;;;;;;;;;22.30;57.50;;;;;;5069578;27;82045;-37
2022/08/12 09:55:10;;;;;;;;;;;22.40;57.50;;;;;;5069484;27;83985;-37
2022/08/12 09:57:36;;;;;;;;;;;22.40;57.60;;;;;;5070040;27;82300;-37
2022/08/12 10:00:05;;;;;;;;;;;22.40;57.50;;;;;;5069744;27;81890;-37
2022/08/12 10:02:36;;;;;;;;;;;22.40;57.80;;;;;;5069255;27;82372;-37
2022/08/12 10:05:02;;;;;;;;;;;22.40;58.00;;;;;;5071465;27;85428;-37
2022/08/12 10:07:29;;;;;;;;;;;22.40;57.90;;;;;;5069430;27;82561;-37
2022/08/12 10:09:54;;;;;;;;;;;22.40;57.70;;;;;;5069559;27;82933;-37
2022/08/12 10:15:04;;;;;;;;;;;22.40;57.90;;;;;;5069120;27;82070;-38
2022/08/12 10:17:30;;;;;;;;;;;22.50;58.00;;;;;;5069020;27;82886;-37
2022/08/12 10:19:55;;;;;;;;;;;22.40;58.00;;;;;;5069522;27;82349;-37
2022/08/12 10:22:21;;;;;;;;;;;22.50;57.70;;;;;;5069626;27;82483;-37
2022/08/12 10:29:35;;;;;;;;;;;22.50;57.80;;;;;;5069231;27;83058;-37
2022/08/12 10:30:19;;;;;;;;;;;22.60;57.90;;;;;;5068447;27;83194;-37
2022/08/12 10:32:57;;;;;;;;;;;22.60;57.80;;;;;;5069377;27;82041;-37
2022/08/12 10:35:24;;;;;;;;;;;22.60;57.80;;;;;;5069462;27;82365;-37
2022/08/12 10:37:50;;;;;;;;;;;22.60;57.80;;;;;;5068711;27;83176;-37
2022/08/12 10:40:15;;;;;;;;;;;22.60;57.80;;;;;;5069328;27;82067;-37
2022/08/12 10:45:24;;;;;;;;;;;22.60;57.90;;;;;;5069300;27;82200;-37
2022/08/12 10:47:51;;;;;;;;;;;22.60;57.90;;;;;;5069667;27;81243;-37
2022/08/12 10:50:21;;;;;;;;;;;22.60;57.80;;;;;;5071529;27;81882;-37
2022/08/12 10:52:46;;;;;;;;;;;22.60;57.80;;;;;;5068640;27;82126;-37
2022/08/12 10:55:12;;;;;;;;;;;22.70;57.60;;;;;;5068341;27;82878;-37
2022/08/12 10:57:37;;;;;;;;;;;22.70;57.60;;;;;;5068682;27;83332;-37
2022/08/12 11:00:05;;;;;;;;;;;22.70;57.60;;;;;;5068638;27;82220;-37
2022/08/12 11:02:31;;;;;;;;;;;22.80;57.70;;;;;;5067787;27;81914;-37
2022/08/12 11:04:57;;;;;;;;;;;22.80;57.80;;;;;;5068658;27;82212;-37
2022/08/12 11:07:23;;;;;;;;;;;22.80;57.70;;;;;;5068459;27;82982;-37
2022/08/12 11:09:49;;;;;;;;;;;22.80;57.70;;;;;;5068343;27;83966;-37
2022/08/12 11:12:15;;;;;;;;;;;22.70;57.80;;;;;;5071728;27;82761;-37
2022/08/12 11:14:41;;;;;;;;;;;22.70;58.10;;;;;;5068608;27;81861;-37
2022/08/12 11:17:08;;;;;;;;;;;22.80;58.00;;;;;;5067801;27;84409;-37
2022/08/12 11:19:35;;;;;;;;;;;22.80;57.70;;;;;;5067816;27;82999;-37
2022/08/12 11:22:01;;;;;;;;;;;22.80;57.90;;;;;;5067761;27;85289;-37
2022/08/12 11:24:27;;;;;;;;;;;22.80;58.10;;;;;;5068455;27;83110;-37
2022/08/12 11:26:53;;;;;;;;;;;22.80;58.00;;;;;;5068118;27;82101;-37
2022/08/12 11:29:19;;;;;;;;;;;22.80;58.00;;;;;;5068525;27;81900;-37
2022/08/12 11:31:45;;;;;;;;;;;22.80;57.80;;;;;;5070594;27;83339;-37
2022/08/12 11:34:11;;;;;;;;;;;22.80;57.90;;;;;;5068319;27;81975;-37
2022/08/12 11:36:37;;;;;;;;;;;22.80;57.90;;;;;;5068314;27;82132;-37
2022/08/12 11:39:02;;;;;;;;;;;22.80;57.90;;;;;;5067983;27;82003;-38
2022/08/12 11:41:28;;;;;;;;;;;22.80;57.90;;;;;;5068141;27;82138;-38
2022/08/12 11:43:54;;;;;;;;;;;22.80;57.80;;;;;;5067385;27;83847;-37
2022/08/12 11:46:19;;;;;;;;;;;22.80;57.90;;;;;;5067879;27;82077;-37
2022/08/12 11:48:45;;;;;;;;;;;22.90;57.80;;;;;;5068101;27;82430;-37
2022/08/12 11:51:10;;;;;;;;;;;22.90;57.80;;;;;;5067647;27;82911;-37
2022/08/12 11:53:36;;;;;;;;;;;22.90;57.90;;;;;;5070630;27;82055;-37
2022/08/12 11:56:03;;;;;;;;;;;22.90;57.90;;;;;;5067780;27;82872;-37
2022/08/12 11:58:30;;;;;;;;;;;22.90;57.90;;;;;;5067431;27;82107;-37
2022/08/12 12:00:55;;;;;;;;;;;22.90;57.90;;;;;;5068548;27;82476;-37
2022/08/12 12:03:21;;;;;;;;;;;22.90;57.70;;;;;;5067498;27;82982;-38
2022/08/12 12:05:46;;;;;;;;;;;22.90;57.80;;;;;;5067453;27;82106;-37
2022/08/12 12:08:22;;;;;;;;;;;22.90;57.70;;;;;;5067074;27;82925;-37
2022/08/12 12:10:51;;;;;;;;;;;23.00;57.80;;;;;;5067340;27;84209;-37
2022/08/12 12:13:17;;;;;;;;;;;23.00;57.80;;;;;;5067535;27;82018;-37
2022/08/12 12:15:43;;;;;;;;;;;23.00;57.80;;;;;;5069784;27;82465;-37
2022/08/12 12:18:22;;;;;;;;;;;23.00;57.70;;;;;;5067305;27;81913;-37
2022/08/12 12:20:47;;;;;;;;;;;23.00;57.80;;;;;;5067491;27;82028;-37
2022/08/12 12:23:13;;;;;;;;;;;23.00;57.70;;;;;;5063533;27;87983;-37
2022/08/12 12:25:38;;;;;;;;;;;23.00;57.70;;;;;;5064574;27;86296;-37
2022/08/12 12:28:04;;;;;;;;;;;23.00;57.80;;;;;;5063811;27;88068;-38
2022/08/12 12:30:29;;;;;;;;;;;23.00;57.70;;;;;;5063560;27;88246;-37
2022/08/12 12:32:55;;;;;;;;;;;23.00;57.60;;;;;;5063189;27;87861;-37
2022/08/12 12:35:20;;;;;;;;;;;23.00;57.80;;;;;;5062548;27;88239;-37
2022/08/12 12:38:05;;;;;;;;;;;23.00;57.70;;;;;;5066481;27;87253;-40
2022/08/12 12:40:32;;;;;;;;;;;23.00;57.70;;;;;;5046725;27;89037;-40
2022/08/12 12:42:57;;;;;;;;;;;23.00;58.20;;;;;;5043140;28;87499;-42
2022/08/12 12:45:24;;;;;;;;;;;23.00;57.90;;;;;;5041486;28;87046;-40
2022/08/12 12:47:52;;;;;;;;;;;23.10;57.60;;;;;;5043427;28;87555;-43
2022/08/12 12:50:18;;;;;;;;;;;23.20;57.50;;;;;;5043358;28;88712;-42
2022/08/12 12:52:43;;;;;;;;;;;23.20;57.00;;;;;;5043313;28;87145;-40
2022/08/12 12:55:09;;;;;;;;;;;23.20;56.90;;;;;;5043027;27;88850;-39
2022/08/12 12:57:41;;;;;;;;;;;23.30;56.10;;;;;;5041849;28;90056;-40
2022/08/12 13:00:17;;;;;;;;;;;23.40;55.20;;;;;;5045448;28;86953;-40
2022/08/12 13:02:51;;;;;;;;;;;23.40;55.60;;;;;;5041643;28;89371;-41
2022/08/12 13:05:20;;;;;;;;;;;23.40;55.10;;;;;;5043411;28;86997;-40
2022/08/12 13:07:46;;;;;;;;;;;23.50;54.50;;;;;;5043316;28;87956;-43
2022/08/12 13:10:12;;;;;;;;;;;23.40;54.50;;;;;;5043166;28;88281;-37
2022/08/12 13:12:38;;;;;;;;;;;23.50;54.50;;;;;;5043187;28;87207;-38
2022/08/12 13:15:08;;;;;;;;;;;23.50;54.60;;;;;;5043073;28;88931;-39
2022/08/12 13:17:34;;;;;;;;;;;23.50;55.00;;;;;;5042868;28;89386;-40
2022/08/12 13:20:03;;;;;;;;;;;23.40;54.70;;;;;;5043126;28;86980;-39
2022/08/12 13:22:29;;;;;;;;;;;23.50;54.50;;;;;;5044906;28;88960;-39
2022/08/12 13:24:57;;;;;;;;;;;23.40;54.50;;;;;;5042208;28;87226;-40
2022/08/12 13:27:28;;;;;;;;;;;23.50;55.40;;;;;;5042409;28;89000;-39
2022/08/12 13:29:56;;;;;;;;;;;23.50;55.00;;;;;;5042233;28;89584;-40
2022/08/12 13:32:22;;;;;;;;;;;23.50;55.10;;;;;;5042864;28;87101;-41
2022/08/12 13:34:52;;;;;;;;;;;23.50;55.70;;;;;;5043000;28;88858;-39
2022/08/12 13:37:24;;;;;;;;;;;23.50;55.20;;;;;;5042469;28;89578;-38
2022/08/12 13:39:50;;;;;;;;;;;23.50;55.40;;;;;;5043096;28;86376;-40
2022/08/12 13:42:16;;;;;;;;;;;23.50;55.20;;;;;;5045519;28;87520;-40
2022/08/12 13:44:42;;;;;;;;;;;23.60;55.20;;;;;;5042846;28;87096;-40
2022/08/12 13:47:08;;;;;;;;;;;23.60;55.10;;;;;;5042287;28;88919;-37
2022/08/12 13:49:33;;;;;;;;;;;23.70;55.10;;;;;;5042348;28;88012;-38
2022/08/12 13:51:59;;;;;;;;;;;23.70;55.10;;;;;;5041323;28;87112;-38
2022/08/12 13:54:25;;;;;;;;;;;23.60;55.10;;;;;;5041401;27;88881;-39
2022/08/12 13:56:50;;;;;;;;;;;23.70;55.20;;;;;;5042066;28;89659;-39
2022/08/12 13:59:19;;;;;;;;;;;23.70;55.30;;;;;;5042552;28;87105;-40
2022/08/12 14:01:50;;;;;;;;;;;23.70;55.70;;;;;;5042521;27;89035;-41
2022/08/12 14:04:16;;;;;;;;;;;23.80;56.00;;;;;;5044755;28;88526;-41
2022/08/12 14:06:41;;;;;;;;;;;23.90;56.30;;;;;;5023728;28;88610;-41
2022/08/12 14:09:07;;;;;;;;;;;23.90;56.50;;;;;;5037077;28;89554;-38
2022/08/12 14:11:32;;;;;;;;;;;23.90;56.40;;;;;;5039932;28;88024;-38
2022/08/12 14:13:59;;;;;;;;;;;24.00;56.20;;;;;;5040631;28;90211;-38
2022/08/12 14:16:26;;;;;;;;;;;24.00;56.20;;;;;;5039747;28;89455;-38
2022/08/12 14:18:52;;;;;;;;;;;24.10;56.20;;;;;;5040271;28;87072;-38
2022/08/12 14:21:19;;;;;;;;;;;24.00;56.00;;;;;;5041567;28;89326;-39
2022/08/12 14:23:49;;;;;;;;;;;24.00;56.20;;;;;;5041622;28;89199;-41
2022/08/12 14:26:19;;;;;;;;;;;24.00;56.20;;;;;;5045710;28;86961;-41
2022/08/12 14:28:45;;;;;;;;;;;24.00;56.70;;;;;;5042370;28;88853;-40
2022/08/12 14:31:12;;;;;;;;;;;24.00;56.90;;;;;;5042272;28;86913;-40
2022/08/12 14:33:37;;;;;;;;;;;24.00;57.00;;;;;;5042105;27;87996;-41
2022/08/12 14:36:04;;;;;;;;;;;24.00;57.10;;;;;;5041583;27;90382;-38
2022/08/12 14:38:38;;;;;;;;;;;24.00;56.80;;;;;;5045281;28;87152;-38
2022/08/12 14:41:07;;;;;;;;;;;23.90;56.80;;;;;;5045616;27;89306;-38
2022/08/12 14:43:36;;;;;;;;;;;23.90;57.60;;;;;;5044903;28;89571;-39
2022/08/12 14:46:11;;;;;;;;;;;23.90;56.80;;;;;;5045603;28;87162;-38
2022/08/12 14:48:45;;;;;;;;;;;23.90;56.50;;;;;;5047970;27;88878;-38
2022/08/12 14:51:11;;;;;;;;;;;24.00;56.60;;;;;;5045500;28;87148;-39
2022/08/12 14:53:37;;;;;;;;;;;24.10;56.60;;;;;;5045959;28;87468;-43
2022/08/12 14:56:03;;;;;;;;;;;24.00;57.00;;;;;;5044923;28;90031;-41
2022/08/12 14:58:29;;;;;;;;;;;24.10;56.80;;;;;;5045081;28;87072;-39
2022/08/12 15:03:39;;;;;;;;;;;24.10;57.20;;;;;;5045111;28;87369;-41
2022/08/12 15:06:05;;;;;;;;;;;24.20;56.20;;;;;;5045274;28;87175;-45
2022/08/12 15:08:33;;;;;;;;;;;24.10;55.50;;;;;;5045061;28;88821;-38
2022/08/12 15:11:01;;;;;;;;;;;24.10;55.60;;;;;;5047349;28;89118;-38
2022/08/12 15:13:28;;;;;;;;;;;24.10;55.10;;;;;;5044657;27;88804;-38
2022/08/12 15:15:55;;;;;;;;;;;24.10;55.40;;;;;;5043297;28;89503;-38
2022/08/12 15:18:21;;;;;;;;;;;24.00;55.40;;;;;;5044997;28;86420;-38
2022/08/12 15:20:46;;;;;;;;;;;24.00;55.40;;;;;;5044619;27;88276;-37
2022/08/12 15:23:12;;;;;;;;;;;24.10;55.50;;;;;;5044204;28;88066;-37
2022/08/12 15:25:39;;;;;;;;;;;24.10;55.40;;;;;;5044017;28;88418;-37
2022/08/12 15:28:06;;;;;;;;;;;24.10;55.50;;;;;;5042417;28;88349;-38
2022/08/12 15:30:33;;;;;;;;;;;24.10;56.10;;;;;;5041831;28;89331;-37
2022/08/12 15:32:59;;;;;;;;;;;24.10;55.40;;;;;;5044950;28;87018;-38
2022/08/12 15:35:28;;;;;;;;;;;24.10;55.40;;;;;;5041970;28;88140;-38
2022/08/12 15:38:03;;;;;;;;;;;24.10;55.30;;;;;;5042349;28;87051;-38
2022/08/12 15:40:29;;;;;;;;;;;24.10;55.30;;;;;;5043517;28;88270;-38
2022/08/12 15:42:56;;;;;;;;;;;24.10;55.30;;;;;;5043857;28;88599;-38
2022/08/12 15:45:22;;;;;;;;;;;24.10;55.20;;;;;;5044020;28;87115;-38
2022/08/12 15:47:47;;;;;;;;;;;24.20;55.30;;;;;;5043894;27;87571;-37
2022/08/12 15:50:13;;;;;;;;;;;24.20;55.20;;;;;;5043472;28;88965;-38
2022/08/12 15:52:38;;;;;;;;;;;24.10;55.10;;;;;;5047058;28;87045;-38
2022/08/12 15:55:07;;;;;;;;;;;24.10;55.20;;;;;;5043758;28;88077;-38
2022/08/12 15:57:32;;;;;;;;;;;24.10;55.10;;;;;;5043858;28;87189;-38
2022/08/12 15:59:58;;;;;;;;;;;24.10;55.10;;;;;;5043911;28;87359;-37
2022/08/12 16:02:25;;;;;;;;;;;24.10;55.10;;;;;;5043545;28;89581;-38
2022/08/12 16:04:50;;;;;;;;;;;24.10;55.10;;;;;;5043998;28;87084;-38